createdAt,value
2019-02-20T00:00:22.558Z,1010.03
2019-02-20T00:01:22.285Z,1010.04
2019-02-20T00:02:21.594Z,1010.08
2019-02-20T00:03:21.381Z,1010.03
2019-02-20T00:04:21.103Z,1010.02
2019-02-20T00:11:20.036Z,1010.01
2019-02-20T00:14:01.914Z,1010.05
2019-02-20T00:15:03.556Z,1010.05
2019-02-20T00:16:03.573Z,1010.09
2019-02-20T00:17:02.495Z,1010.02
2019-02-20T00:18:01.041Z,1010.02
2019-02-20T00:18:59.867Z,1010
2019-02-20T00:20:00.112Z,1010.01
2019-02-20T00:20:59.214Z,1010.04
2019-02-20T00:22:00.014Z,1010.04
2019-02-20T00:22:59.701Z,1010.09
2019-02-20T00:23:59.521Z,1010.08
2019-02-20T00:25:00.054Z,1010.03
2019-02-20T00:26:09.113Z,1010.09
2019-02-20T00:27:11.112Z,1010.09
2019-02-20T00:28:10.999Z,1010.15
2019-02-20T00:29:13.453Z,1010.16
2019-02-20T00:30:13.485Z,1010.12
2019-02-20T00:31:16.148Z,1010.11
2019-02-20T00:32:21.020Z,1010.19
2019-02-20T00:33:20.794Z,1010.15
2019-02-20T00:34:19.391Z,1010.15
2019-02-20T00:35:19.209Z,1010.15
2019-02-20T00:36:18.235Z,1010.16
2019-02-20T00:37:19.817Z,1010.15
2019-02-20T00:38:18.684Z,1010.16
2019-02-20T00:39:20.428Z,1010.15
2019-02-20T00:40:19.530Z,1010.19
2019-02-20T00:43:27.011Z,1010.2
2019-02-20T00:44:30.054Z,1010.18
2019-02-20T00:45:35.064Z,1010.2
2019-02-20T00:46:38.621Z,1010.21
2019-02-20T00:47:37.388Z,1010.21
2019-02-20T00:48:38.444Z,1010.22
2019-02-20T00:49:40.712Z,1010.21
2019-02-20T00:50:40.619Z,1010.24
2019-02-20T00:51:42.225Z,1010.22
2019-02-20T00:52:49.754Z,1010.21
2019-02-20T00:53:48.175Z,1010.23
2019-02-20T00:54:48.380Z,1010.31
2019-02-20T00:55:49.384Z,1010.25
2019-02-20T00:56:52.825Z,1010.25
2019-02-20T00:57:54.135Z,1010.25
2019-02-20T00:58:55.401Z,1010.31
2019-02-20T00:59:53.948Z,1010.29
2019-02-20T01:00:52.475Z,1010.27
2019-02-20T01:01:51.207Z,1010.33
2019-02-20T01:02:49.570Z,1010.33
2019-02-20T01:03:48.110Z,1010.31
2019-02-20T01:04:46.677Z,1010.33
2019-02-20T01:05:45.189Z,1010.34
2019-02-20T01:06:45.242Z,1010.32
2019-02-20T01:07:42.278Z,1010.43
2019-02-20T01:08:40.805Z,1010.37
2019-02-20T01:09:39.572Z,1010.37
2019-02-20T01:10:38.099Z,1010.4
2019-02-20T01:11:36.661Z,1010.42
2019-02-20T01:12:35.218Z,1010.43
2019-02-20T01:13:33.989Z,1010.38
2019-02-20T01:14:32.581Z,1010.4
2019-02-20T01:15:31.149Z,1010.4
2019-02-20T01:16:29.704Z,1010.42
2019-02-20T01:17:28.271Z,1010.38
2019-02-20T01:18:26.835Z,1010.41
2019-02-20T01:19:25.439Z,1010.4
2019-02-20T01:20:24.096Z,1010.38
2019-02-20T01:21:22.808Z,1010.39
2019-02-20T01:22:21.439Z,1010.35
2019-02-20T01:23:20.102Z,1010.35
2019-02-20T01:24:18.599Z,1010.29
2019-02-20T01:25:17.288Z,1010.32
2019-02-20T01:26:15.900Z,1010.26
2019-02-20T01:27:14.419Z,1010.31
2019-02-20T01:28:12.990Z,1010.34
2019-02-20T01:29:11.586Z,1010.34
2019-02-20T01:30:10.186Z,1010.31
2019-02-20T01:31:08.721Z,1010.3
2019-02-20T01:32:07.416Z,1010.34
2019-02-20T01:33:06.141Z,1010.29
2019-02-20T01:34:04.650Z,1010.32
2019-02-20T01:35:03.379Z,1010.31
2019-02-20T01:36:01.927Z,1010.33
2019-02-20T01:37:00.472Z,1010.31
2019-02-20T01:37:59.121Z,1010.34
2019-02-20T01:38:57.637Z,1010.3
2019-02-20T01:39:56.390Z,1010.32
2019-02-20T01:40:55.063Z,1010.3
2019-02-20T01:41:53.725Z,1010.29
2019-02-20T01:42:52.298Z,1010.3
2019-02-20T01:43:50.845Z,1010.29
2019-02-20T01:44:49.632Z,1010.27
2019-02-20T01:45:48.167Z,1010.25
2019-02-20T01:46:46.700Z,1010.22
2019-02-20T01:47:45.252Z,1010.24
2019-02-20T01:48:43.832Z,1010.25
2019-02-20T01:49:42.356Z,1010.24
2019-02-20T01:50:40.900Z,1010.26
2019-02-20T01:51:39.469Z,1010.27
2019-02-20T01:52:38.022Z,1010.24
2019-02-20T01:53:36.548Z,1010.23
2019-02-20T01:54:35.082Z,1010.3
2019-02-20T01:55:33.780Z,1010.31
2019-02-20T01:56:32.357Z,1010.29
2019-02-20T01:57:30.938Z,1010.32
2019-02-20T01:58:29.792Z,1010.31
2019-02-20T01:59:28.365Z,1010.3
2019-02-20T02:00:26.854Z,1010.28
2019-02-20T02:01:25.498Z,1010.27
2019-02-20T02:02:24.089Z,1010.31
2019-02-20T02:03:22.679Z,1010.28
2019-02-20T02:04:21.421Z,1010.25
2019-02-20T02:05:19.940Z,1010.29
2019-02-20T02:06:18.493Z,1010.28
2019-02-20T02:07:17.073Z,1010.26
2019-02-20T02:08:15.687Z,1010.27
2019-02-20T02:09:14.267Z,1010.26
2019-02-20T02:10:12.808Z,1010.26
2019-02-20T02:11:11.554Z,1010.27
2019-02-20T02:12:10.124Z,1010.25
2019-02-20T02:13:08.657Z,1010.24
2019-02-20T02:14:07.225Z,1010.2
2019-02-20T02:15:05.734Z,1010.21
2019-02-20T02:16:04.289Z,1010.18
2019-02-20T02:17:02.800Z,1010.13
2019-02-20T02:18:01.372Z,1010.14
2019-02-20T02:19:00.005Z,1010.13
2019-02-20T02:19:58.543Z,1010.16
2019-02-20T02:20:57.096Z,1010.16
2019-02-20T02:21:55.843Z,1010.15
2019-02-20T02:22:54.451Z,1010.2
2019-02-20T02:23:53.005Z,1010.2
2019-02-20T02:24:51.689Z,1010.19
2019-02-20T02:25:50.231Z,1010.18
2019-02-20T02:26:48.773Z,1010.22
2019-02-20T02:27:47.377Z,1010.22
2019-02-20T02:28:45.923Z,1010.17
2019-02-20T02:29:44.475Z,1010.2
2019-02-20T02:30:43.018Z,1010.2
2019-02-20T02:31:41.559Z,1010.21
2019-02-20T02:32:40.084Z,1010.18
2019-02-20T02:33:38.638Z,1010.16
2019-02-20T02:34:37.179Z,1010.13
2019-02-20T02:35:35.717Z,1010.16
2019-02-20T02:36:34.332Z,1010.14
2019-02-20T02:37:32.915Z,1010.21
2019-02-20T02:38:31.630Z,1010.16
2019-02-20T02:39:30.266Z,1010.13
2019-02-20T02:40:28.822Z,1010.14
2019-02-20T02:41:27.356Z,1010.13
2019-02-20T02:42:25.923Z,1010.12
2019-02-20T02:43:24.547Z,1010.13
2019-02-20T02:44:23.196Z,1010.16
2019-02-20T02:45:21.762Z,1010.1
2019-02-20T02:46:20.316Z,1010.12
2019-02-20T02:47:18.945Z,1010.12
2019-02-20T02:48:17.657Z,1010.06
2019-02-20T02:49:16.202Z,1010.09
2019-02-20T02:50:14.737Z,1010.14
2019-02-20T02:51:13.370Z,1010.07
2019-02-20T02:52:12.067Z,1010.11
2019-02-20T02:53:10.668Z,1010.12
2019-02-20T02:54:09.268Z,1010.1
2019-02-20T02:55:07.835Z,1010.07
2019-02-20T02:56:06.364Z,1010.12
2019-02-20T02:57:04.946Z,1010.09
2019-02-20T02:58:03.526Z,1010.09
2019-02-20T02:59:02.073Z,1010.12
2019-02-20T03:00:00.652Z,1010.15
2019-02-20T03:00:59.354Z,1010.15
2019-02-20T03:01:58.038Z,1010.15
2019-02-20T03:04:57.172Z,1010.15
2019-02-20T03:05:55.969Z,1010.14
2019-02-20T03:06:54.651Z,1010.14
2019-02-20T03:07:53.422Z,1010.15
2019-02-20T03:08:52.008Z,1010.16
2019-02-20T03:09:50.587Z,1010.16
2019-02-20T03:10:49.154Z,1010.12
2019-02-20T03:11:47.973Z,1010.12
2019-02-20T03:12:46.515Z,1010.1
2019-02-20T03:13:45.132Z,1010.09
2019-02-20T03:14:43.834Z,1010.09
2019-02-20T03:15:42.421Z,1010.08
2019-02-20T03:16:41.090Z,1010.08
2019-02-20T03:17:39.645Z,1010.06
2019-02-20T03:18:38.273Z,1010.08
2019-02-20T03:19:36.827Z,1010.07
2019-02-20T03:20:35.366Z,1010.07
2019-02-20T03:21:33.976Z,1010.07
2019-02-20T03:22:32.536Z,1010.09
2019-02-20T03:23:39.743Z,1010.09
2019-02-20T03:24:30.050Z,1010.1
2019-02-20T03:25:28.572Z,1010.12
2019-02-20T03:26:27.267Z,1010.12
2019-02-20T03:27:25.852Z,1010.1
2019-02-20T03:28:24.471Z,1010.07
2019-02-20T03:29:22.973Z,1010.1
2019-02-20T03:30:21.607Z,1010.06
2019-02-20T03:31:20.246Z,1010.04
2019-02-20T03:32:18.794Z,1010.05
2019-02-20T03:33:17.451Z,1010.05
2019-02-20T03:34:16.065Z,1010.07
2019-02-20T03:35:14.650Z,1010.08
2019-02-20T03:36:13.424Z,1010.06
2019-02-20T03:37:12.028Z,1010.09
2019-02-20T03:38:10.579Z,1010.07
2019-02-20T03:39:09.103Z,1010.09
2019-02-20T03:40:08.018Z,1010.11
2019-02-20T03:41:06.590Z,1010.03
2019-02-20T03:42:05.137Z,1010.07
2019-02-20T03:43:03.662Z,1010.08
2019-02-20T03:44:02.218Z,1010.1
2019-02-20T03:45:00.792Z,1010.11
2019-02-20T03:45:59.609Z,1010.16
2019-02-20T03:46:58.257Z,1010.16
2019-02-20T03:47:56.794Z,1010.18
2019-02-20T03:48:55.514Z,1010.12
2019-02-20T03:49:54.099Z,1010.07
2019-02-20T03:50:52.596Z,1010.07
2019-02-20T03:51:51.193Z,1010.06
2019-02-20T03:52:49.985Z,1010.06
2019-02-20T03:53:52.208Z,1010.06
2019-02-20T03:55:48.831Z,1010.08
2019-02-20T03:56:47.379Z,1010.09
2019-02-20T03:57:46.082Z,1010.07
2019-02-20T03:58:44.638Z,1010.08
2019-02-20T03:59:43.306Z,1010.09
2019-02-20T04:00:42.076Z,1010.08
2019-02-20T04:01:40.734Z,1010.08
2019-02-20T04:02:40.790Z,1010.11
2019-02-20T04:03:39.404Z,1010.09
2019-02-20T04:04:38.072Z,1010.19
2019-02-20T04:05:36.651Z,1010.11
2019-02-20T04:06:35.363Z,1010.11
2019-02-20T04:09:56.532Z,1010.2
2019-02-20T04:10:55.069Z,1010.25
2019-02-20T04:11:53.844Z,1010.21
2019-02-20T04:12:52.355Z,1010.2
2019-02-20T04:13:50.893Z,1010.22
2019-02-20T04:14:49.655Z,1010.22
2019-02-20T04:15:48.328Z,1010.25
2019-02-20T04:16:46.846Z,1010.22
2019-02-20T04:17:45.423Z,1010.2
2019-02-20T04:18:43.938Z,1010.2
2019-02-20T04:19:42.468Z,1010.2
2019-02-20T04:20:41.411Z,1010.23
2019-02-20T04:21:40.179Z,1010.21
2019-02-20T04:22:38.696Z,1010.19
2019-02-20T04:23:37.407Z,1010.18
2019-02-20T04:24:36.255Z,1010.16
2019-02-20T04:25:34.823Z,1010.15
2019-02-20T04:26:33.492Z,1010.13
2019-02-20T04:27:32.176Z,1010.15
2019-02-20T04:28:30.791Z,1010.18
2019-02-20T04:29:29.430Z,1010.2
2019-02-20T04:30:28.165Z,1010.14
2019-02-20T04:31:26.730Z,1010.17
2019-02-20T04:32:25.310Z,1010.16
2019-02-20T04:33:23.978Z,1010.16
2019-02-20T04:34:22.589Z,1010.22
2019-02-20T04:35:21.224Z,1010.29
2019-02-20T04:36:19.920Z,1010.32
2019-02-20T04:37:18.537Z,1010.33
2019-02-20T04:38:17.140Z,1010.27
2019-02-20T04:39:15.695Z,1010.26
2019-02-20T04:40:14.267Z,1010.34
2019-02-20T04:41:12.830Z,1010.33
2019-02-20T04:42:11.920Z,1010.31
2019-02-20T04:43:10.494Z,1010.32
2019-02-20T04:44:09.067Z,1010.29
2019-02-20T04:45:07.807Z,1010.29
2019-02-20T04:46:06.325Z,1010.25
2019-02-20T04:47:04.860Z,1010.28
2019-02-20T04:48:03.468Z,1010.25
2019-02-20T04:49:02.009Z,1010.28
2019-02-20T04:50:00.666Z,1010.29
2019-02-20T04:50:59.292Z,1010.22
2019-02-20T04:51:57.989Z,1010.24
2019-02-20T04:52:56.588Z,1010.3
2019-02-20T04:53:55.279Z,1010.25
2019-02-20T04:54:53.977Z,1010.23
2019-02-20T04:55:52.564Z,1010.29
2019-02-20T04:56:51.218Z,1010.3
2019-02-20T04:57:49.964Z,1010.28
2019-02-20T04:58:48.509Z,1010.24
2019-02-20T04:59:47.103Z,1010.27
2019-02-20T05:00:45.697Z,1010.24
2019-02-20T05:01:44.284Z,1010.32
2019-02-20T05:02:43.094Z,1010.24
2019-02-20T05:03:41.681Z,1010.24
2019-02-20T05:04:40.193Z,1010.27
2019-02-20T05:05:38.760Z,1010.27
2019-02-20T05:06:37.633Z,1010.29
2019-02-20T05:07:36.371Z,1010.28
2019-02-20T05:08:35.169Z,1010.27
2019-02-20T05:09:33.734Z,1010.34
2019-02-20T05:10:32.260Z,1010.36
2019-02-20T05:11:30.807Z,1010.38
2019-02-20T05:12:29.360Z,1010.35
2019-02-20T05:13:27.878Z,1010.4
2019-02-20T05:14:26.425Z,1010.38
2019-02-20T05:15:24.990Z,1010.42
2019-02-20T05:16:23.722Z,1010.36
2019-02-20T05:17:22.256Z,1010.31
2019-02-20T05:18:20.790Z,1010.34
2019-02-20T05:19:19.489Z,1010.34
2019-02-20T05:20:18.222Z,1010.37
2019-02-20T05:21:16.760Z,1010.33
2019-02-20T05:22:15.357Z,1010.36
2019-02-20T05:23:13.961Z,1010.37
2019-02-20T05:24:21.979Z,1010.41
2019-02-20T05:25:11.149Z,1010.42
2019-02-20T05:26:10.003Z,1010.43
2019-02-20T05:27:08.608Z,1010.38
2019-02-20T05:28:07.181Z,1010.4
2019-02-20T05:29:05.945Z,1010.37
2019-02-20T05:30:04.534Z,1010.38
2019-02-20T05:31:03.180Z,1010.46
2019-02-20T05:32:02.210Z,1010.44
2019-02-20T05:35:41.193Z,1010.44
2019-02-20T05:36:39.898Z,1010.45
2019-02-20T05:37:39.674Z,1010.49
2019-02-20T05:38:37.053Z,1010.45
2019-02-20T05:39:35.952Z,1010.47
2019-02-20T05:40:34.542Z,1010.48
2019-02-20T05:41:34.234Z,1010.52
2019-02-20T05:42:32.841Z,1010.47
2019-02-20T05:43:31.523Z,1010.55
2019-02-20T05:44:30.125Z,1010.49
2019-02-20T05:45:28.773Z,1010.51
2019-02-20T05:46:27.533Z,1010.49
2019-02-20T06:04:09.685Z,1010.59
2019-02-20T06:05:08.257Z,1010.64
2019-02-20T06:06:06.865Z,1010.64
2019-02-20T06:07:06.338Z,1010.64
2019-02-20T06:08:05.616Z,1010.68
2019-02-20T06:09:04.278Z,1010.67
2019-02-20T06:10:02.848Z,1010.68
2019-02-20T06:11:01.764Z,1010.73
2019-02-20T06:12:00.331Z,1010.71
2019-02-20T06:12:58.885Z,1010.74
2019-02-20T06:13:57.455Z,1010.69
2019-02-20T06:14:56.273Z,1010.77
2019-02-20T06:15:54.821Z,1010.77
2019-02-20T06:16:53.413Z,1010.72
2019-02-20T06:17:51.952Z,1010.78
2019-02-20T06:18:50.703Z,1010.82
2019-02-20T06:19:49.046Z,1010.75
2019-02-20T06:20:47.607Z,1010.78
2019-02-20T06:21:46.245Z,1010.77
2019-02-20T06:22:44.787Z,1010.81
2019-02-20T06:23:43.375Z,1010.78
2019-02-20T06:24:44.216Z,1010.79
2019-02-20T06:25:40.560Z,1010.79
2019-02-20T06:26:39.273Z,1010.79
2019-02-20T06:27:37.981Z,1010.79
2019-02-20T06:28:36.516Z,1010.76
2019-02-20T06:29:35.043Z,1010.76
2019-02-20T06:30:33.648Z,1010.74
2019-02-20T06:31:32.338Z,1010.75
2019-02-20T06:32:30.906Z,1010.75
2019-02-20T06:33:29.670Z,1010.75
2019-02-20T06:34:28.306Z,1010.79
2019-02-20T06:35:26.851Z,1010.79
2019-02-20T06:36:25.665Z,1010.82
2019-02-20T06:37:24.304Z,1010.78
2019-02-20T06:38:22.990Z,1010.81
2019-02-20T06:39:21.809Z,1010.83
2019-02-20T06:40:20.429Z,1010.86
2019-02-20T06:41:18.969Z,1010.87
2019-02-20T06:42:17.856Z,1010.89
2019-02-20T06:43:16.388Z,1010.89
2019-02-20T06:44:14.996Z,1010.87
2019-02-20T06:45:13.599Z,1010.91
2019-02-20T06:46:12.300Z,1010.87
2019-02-20T06:47:10.921Z,1010.89
2019-02-20T06:48:09.784Z,1010.93
2019-02-20T06:49:08.365Z,1010.93
2019-02-20T06:50:07.070Z,1010.89
2019-02-20T06:51:05.791Z,1010.93
2019-02-20T06:52:04.371Z,1010.93
2019-02-20T06:53:02.883Z,1010.97
2019-02-20T06:54:01.526Z,1010.97
2019-02-20T06:55:00.418Z,1011.02
2019-02-20T06:55:58.985Z,1011
2019-02-20T06:56:57.614Z,1010.99
2019-02-20T06:57:56.150Z,1010.99
2019-02-20T06:58:54.701Z,1011.01
2019-02-20T06:59:53.276Z,1011.04
2019-02-20T07:00:51.838Z,1011.05
2019-02-20T07:01:50.367Z,1011.03
2019-02-20T07:03:12.091Z,1011.06
2019-02-20T07:04:10.728Z,1011.09
2019-02-20T07:05:09.391Z,1011.07
2019-02-20T07:06:08.143Z,1011.09
2019-02-20T07:07:06.693Z,1011.12
2019-02-20T07:08:05.385Z,1011.1
2019-02-20T07:09:04.267Z,1011.14
2019-02-20T07:10:03.091Z,1011.09
2019-02-20T07:11:01.742Z,1011.06
2019-02-20T07:12:00.410Z,1011.15
2019-02-20T07:12:59.014Z,1011.11
2019-02-20T07:13:57.836Z,1011.11
2019-02-20T07:14:56.472Z,1011.15
2019-02-20T07:15:55.216Z,1011.21
2019-02-20T07:16:53.967Z,1011.16
2019-02-20T07:17:52.500Z,1011.19
2019-02-20T07:18:51.222Z,1011.16
2019-02-20T07:19:49.969Z,1011.14
2019-02-20T07:20:48.720Z,1011.18
2019-02-20T07:21:47.407Z,1011.2
2019-02-20T07:22:46.173Z,1011.17
2019-02-20T07:23:44.762Z,1011.12
2019-02-20T07:24:43.546Z,1011.17
2019-02-20T07:25:42.956Z,1011.12
2019-02-20T07:26:41.668Z,1011.11
2019-02-20T07:27:40.553Z,1011.13
2019-02-20T07:28:39.169Z,1011.17
2019-02-20T07:29:38.002Z,1011.18
2019-02-20T07:30:36.681Z,1011.19
2019-02-20T07:31:35.369Z,1011.19
2019-02-20T07:32:34.029Z,1011.2
2019-02-20T07:33:32.711Z,1011.17
2019-02-20T07:34:31.279Z,1011.21
2019-02-20T07:35:29.970Z,1011.24
2019-02-20T07:36:28.516Z,1011.2
2019-02-20T07:37:27.059Z,1011.24
2019-02-20T07:38:25.903Z,1011.24
2019-02-20T07:39:24.957Z,1011.24
2019-02-20T07:40:23.603Z,1011.25
2019-02-20T07:41:22.164Z,1011.26
2019-02-20T07:42:20.879Z,1011.26
2019-02-20T07:43:19.670Z,1011.29
2019-02-20T07:44:18.393Z,1011.29
2019-02-20T07:45:17.138Z,1011.34
2019-02-20T07:46:15.707Z,1011.32
2019-02-20T07:47:14.240Z,1011.32
2019-02-20T07:48:12.927Z,1011.32
2019-02-20T07:49:11.684Z,1011.35
2019-02-20T07:50:10.373Z,1011.35
2019-02-20T07:51:09.124Z,1011.36
2019-02-20T07:52:07.659Z,1011.37
2019-02-20T07:53:06.190Z,1011.38
2019-02-20T07:54:04.765Z,1011.43
2019-02-20T07:55:12.854Z,1011.45
2019-02-20T07:56:02.412Z,1011.48
2019-02-20T07:57:01.232Z,1011.5
2019-02-20T07:57:59.942Z,1011.52
2019-02-20T07:58:58.518Z,1011.51
2019-02-20T07:59:57.091Z,1011.55
2019-02-20T08:00:55.784Z,1011.55
2019-02-20T08:01:54.441Z,1011.54
2019-02-20T08:02:53.148Z,1011.51
2019-02-20T08:03:51.805Z,1011.45
2019-02-20T08:04:50.333Z,1011.44
2019-02-20T08:05:48.892Z,1011.51
2019-02-20T08:06:47.617Z,1011.49
2019-02-20T08:07:47.079Z,1011.51
2019-02-20T08:08:45.695Z,1011.46
2019-02-20T08:09:44.339Z,1011.54
2019-02-20T08:10:42.902Z,1011.55
2019-02-20T08:11:42.087Z,1011.54
2019-02-20T08:12:40.448Z,1011.55
2019-02-20T08:13:39.578Z,1011.57
2019-02-20T08:14:37.665Z,1011.6
2019-02-20T08:15:36.235Z,1011.63
2019-02-20T08:16:34.731Z,1011.6
2019-02-20T08:17:33.495Z,1011.63
2019-02-20T08:18:32.201Z,1011.66
2019-02-20T08:19:30.729Z,1011.63
2019-02-20T08:20:29.334Z,1011.64
2019-02-20T08:21:27.995Z,1011.68
2019-02-20T08:22:26.546Z,1011.68
2019-02-20T08:23:25.340Z,1011.71
2019-02-20T08:24:23.916Z,1011.69
2019-02-20T08:25:23.248Z,1011.68
2019-02-20T08:26:21.037Z,1011.66
2019-02-20T08:27:19.869Z,1011.66
2019-02-20T08:28:18.492Z,1011.63
2019-02-20T08:29:17.150Z,1011.67
2019-02-20T08:30:15.781Z,1011.66
2019-02-20T08:31:14.348Z,1011.68
2019-02-20T08:32:12.912Z,1011.68
2019-02-20T08:33:11.487Z,1011.67
2019-02-20T08:34:10.105Z,1011.63
2019-02-20T08:35:08.643Z,1011.6
2019-02-20T08:36:07.370Z,1011.63
2019-02-20T08:37:06.544Z,1011.61
2019-02-20T08:38:05.376Z,1011.57
2019-02-20T08:39:04.224Z,1011.6
2019-02-20T08:40:02.747Z,1011.58
2019-02-20T08:41:01.394Z,1011.59
2019-02-20T08:41:59.965Z,1011.58
2019-02-20T08:42:58.572Z,1011.54
2019-02-20T08:43:57.144Z,1011.56
2019-02-20T08:44:55.885Z,1011.52
2019-02-20T08:45:54.451Z,1011.52
2019-02-20T08:46:52.983Z,1011.54
2019-02-20T08:47:51.556Z,1011.5
2019-02-20T08:48:50.262Z,1011.55
2019-02-20T08:49:49.257Z,1011.55
2019-02-20T08:50:47.592Z,1011.5
2019-02-20T08:51:46.344Z,1011.58
2019-02-20T08:52:45.114Z,1011.6
2019-02-20T08:53:43.826Z,1011.56
2019-02-20T08:54:42.393Z,1011.54
2019-02-20T08:55:40.988Z,1011.61
2019-02-20T08:56:40.750Z,1011.56
2019-02-20T08:57:39.340Z,1011.57
2019-02-20T08:58:38.125Z,1011.65
2019-02-20T08:59:36.812Z,1011.61
2019-02-20T09:00:35.333Z,1011.69
2019-02-20T09:01:34.027Z,1011.67
2019-02-20T09:02:32.661Z,1011.69
2019-02-20T09:03:31.318Z,1011.74
2019-02-20T09:04:29.986Z,1011.77
2019-02-20T09:05:28.431Z,1011.77
2019-02-20T09:06:27.720Z,1011.81
2019-02-20T09:07:26.273Z,1011.81
2019-02-20T09:08:24.828Z,1011.78
2019-02-20T09:09:23.402Z,1011.73
2019-02-20T09:12:15.025Z,1011.84
2019-02-20T09:13:13.606Z,1011.9
2019-02-20T09:15:36.881Z,1011.95
2019-02-20T09:16:35.564Z,1012.01
2019-02-20T09:17:34.203Z,1012.02
2019-02-20T09:18:32.773Z,1012.08
2019-02-20T09:19:31.447Z,1012.08
2019-02-20T09:20:30.211Z,1012.16
2019-02-20T09:21:28.855Z,1012.16
2019-02-20T09:22:27.480Z,1012.2
2019-02-20T09:23:26.030Z,1012.23
2019-02-20T09:24:24.581Z,1012.26
2019-02-20T09:25:23.133Z,1012.24
2019-02-20T09:26:21.679Z,1012.24
2019-02-20T09:27:20.425Z,1012.19
2019-02-20T09:28:19.019Z,1012.22
2019-02-20T09:29:17.652Z,1012.16
2019-02-20T09:30:16.293Z,1012.16
2019-02-20T09:31:14.843Z,1012.22
2019-02-20T09:32:13.522Z,1012.22
2019-02-20T09:33:12.182Z,1012.24
2019-02-20T09:34:10.908Z,1012.26
2019-02-20T09:35:09.571Z,1012.26
2019-02-20T09:36:08.325Z,1012.29
2019-02-20T09:37:07.035Z,1012.25
2019-02-20T09:38:05.707Z,1012.29
2019-02-20T09:39:04.266Z,1012.25
2019-02-20T09:40:02.785Z,1012.29
2019-02-20T09:41:01.321Z,1012.26
2019-02-20T09:42:00.008Z,1012.27
2019-02-20T09:42:58.723Z,1012.24
2019-02-20T09:43:57.343Z,1012.25
2019-02-20T09:44:56.144Z,1012.22
2019-02-20T09:45:54.702Z,1012.22
2019-02-20T09:46:53.340Z,1012.24
2019-02-20T09:47:51.939Z,1012.22
2019-02-20T09:48:50.458Z,1012.21
2019-02-20T09:49:49.044Z,1012.25
2019-02-20T09:50:47.819Z,1012.23
2019-02-20T09:51:46.428Z,1012.21
2019-02-20T09:52:51.850Z,1012.26
2019-02-20T09:53:43.570Z,1012.23
2019-02-20T09:54:42.355Z,1012.25
2019-02-20T09:55:40.930Z,1012.25
2019-02-20T09:56:39.583Z,1012.25
2019-02-20T09:57:38.074Z,1012.24
2019-02-20T09:58:36.670Z,1012.32
2019-02-20T09:59:35.228Z,1012.32
2019-02-20T10:00:33.722Z,1012.3
2019-02-20T10:01:32.390Z,1012.3
2019-02-20T10:02:30.947Z,1012.34
2019-02-20T10:03:29.687Z,1012.38
2019-02-20T10:04:28.417Z,1012.36
2019-02-20T10:05:26.991Z,1012.34
2019-02-20T10:06:25.679Z,1012.33
2019-02-20T10:07:24.233Z,1012.33
2019-02-20T10:08:22.809Z,1012.35
2019-02-20T10:09:21.475Z,1012.35
2019-02-20T10:10:20.280Z,1012.37
2019-02-20T10:11:18.903Z,1012.37
2019-02-20T10:12:17.755Z,1012.38
2019-02-20T10:13:16.298Z,1012.4
2019-02-20T10:14:14.933Z,1012.38
2019-02-20T10:15:13.474Z,1012.42
2019-02-20T10:16:12.084Z,1012.33
2019-02-20T10:17:10.609Z,1012.36
2019-02-20T10:18:09.963Z,1012.37
2019-02-20T10:19:08.569Z,1012.36
2019-02-20T10:20:07.266Z,1012.43
2019-02-20T10:21:05.955Z,1012.43
2019-02-20T10:22:04.756Z,1012.42
2019-02-20T10:23:03.473Z,1012.4
2019-02-20T10:24:02.057Z,1012.44
2019-02-20T10:25:00.612Z,1012.43
2019-02-20T10:26:01.037Z,1012.43
2019-02-20T10:27:00.530Z,1012.44
2019-02-20T10:27:56.841Z,1012.44
2019-02-20T10:28:55.588Z,1012.42
2019-02-20T10:29:54.219Z,1012.38
2019-02-20T10:30:52.772Z,1012.41
2019-02-20T10:31:51.512Z,1012.45
2019-02-20T10:32:50.305Z,1012.43
2019-02-20T10:33:48.919Z,1012.41
2019-02-20T10:34:47.669Z,1012.42
2019-02-20T10:35:46.426Z,1012.39
2019-02-20T10:36:45.079Z,1012.37
2019-02-20T10:37:43.765Z,1012.34
2019-02-20T10:38:42.368Z,1012.37
2019-02-20T10:39:41.041Z,1012.37
2019-02-20T10:40:39.658Z,1012.38
2019-02-20T10:41:38.369Z,1012.38
2019-02-20T10:42:37.016Z,1012.43
2019-02-20T10:43:35.884Z,1012.4
2019-02-20T10:44:34.537Z,1012.39
2019-02-20T10:45:33.125Z,1012.43
2019-02-20T10:46:31.767Z,1012.37
2019-02-20T10:47:30.365Z,1012.4
2019-02-20T10:48:28.909Z,1012.36
2019-02-20T10:49:27.821Z,1012.36
2019-02-20T10:50:26.698Z,1012.34
2019-02-20T10:51:25.332Z,1012.32
2019-02-20T10:52:23.845Z,1012.37
2019-02-20T10:53:22.418Z,1012.34
2019-02-20T10:54:21.324Z,1012.44
2019-02-20T10:55:19.975Z,1012.4
2019-02-20T10:56:18.614Z,1012.37
2019-02-20T10:57:17.392Z,1012.34
2019-02-20T10:58:16.013Z,1012.31
2019-02-20T10:59:14.530Z,1012.32
2019-02-20T11:00:23.128Z,1012.34
2019-02-20T11:01:11.678Z,1012.36
2019-02-20T11:02:10.359Z,1012.29
2019-02-20T11:03:09.004Z,1012.34
2019-02-20T11:04:07.611Z,1012.33
2019-02-20T11:05:06.224Z,1012.35
2019-02-20T12:12:31.783Z,1012.17
2019-02-20T12:13:30.373Z,1012.17
2019-02-20T12:14:28.913Z,1012.2
2019-02-20T12:15:27.756Z,1012.22
2019-02-20T12:16:27.304Z,1012.19
2019-02-20T12:17:25.414Z,1012.19
2019-02-20T12:18:24.142Z,1012.1
2019-02-20T12:19:23.588Z,1012.14
2019-02-20T12:20:21.838Z,1012.1
2019-02-20T12:21:20.435Z,1012.09
2019-02-20T12:22:19.102Z,1012.08
2019-02-20T12:23:17.767Z,1012.06
2019-02-20T12:25:57.978Z,1012.02
2019-02-20T12:28:38.430Z,1012
2019-02-20T12:29:37.001Z,1011.99
2019-02-20T12:30:35.673Z,1011.97
2019-02-20T12:31:34.239Z,1011.94
2019-02-20T12:32:32.800Z,1011.95
2019-02-20T12:33:31.294Z,1011.93
2019-02-20T12:34:29.976Z,1011.93
2019-02-20T12:35:28.529Z,1011.92
2019-02-20T12:36:27.092Z,1011.91
2019-02-20T12:37:25.751Z,1011.95
2019-02-20T12:38:24.333Z,1011.89
2019-02-20T12:39:23.136Z,1011.94
2019-02-20T12:41:45.696Z,1011.87
2019-02-20T12:44:26.081Z,1011.91
2019-02-20T12:45:25.100Z,1011.89
2019-02-20T12:46:23.641Z,1011.87
2019-02-20T12:57:35.065Z,1011.85
2019-02-20T12:58:33.695Z,1011.86
2019-02-20T12:59:32.369Z,1011.91
2019-02-20T13:00:30.916Z,1011.88
2019-02-20T13:01:29.516Z,1011.87
2019-02-20T13:03:27.035Z,1011.82
2019-02-20T13:04:25.665Z,1011.84
2019-02-20T13:05:24.355Z,1011.85
2019-02-20T13:06:22.863Z,1011.8
2019-02-20T13:07:21.409Z,1011.85
2019-02-20T13:08:20.187Z,1011.85
2019-02-20T13:10:20.829Z,1011.88
2019-02-20T13:11:19.495Z,1011.82
2019-02-20T13:12:17.937Z,1011.84
2019-02-20T13:13:16.524Z,1011.85
2019-02-20T13:14:15.038Z,1011.86
2019-02-20T13:15:13.581Z,1011.86
2019-02-20T13:16:12.256Z,1011.85
2019-02-20T13:17:10.825Z,1011.86
2019-02-20T13:18:09.416Z,1011.79
2019-02-20T13:19:07.997Z,1011.81
2019-02-20T13:20:06.566Z,1011.82
2019-02-20T13:21:05.050Z,1011.8
2019-02-20T13:22:03.662Z,1011.8
2019-02-20T13:23:02.479Z,1011.8
2019-02-20T13:24:01.130Z,1011.77
2019-02-20T13:24:59.787Z,1011.81
2019-02-20T13:25:58.395Z,1011.79
2019-02-20T13:26:57.319Z,1011.78
2019-02-20T13:27:55.969Z,1011.75
2019-02-20T13:28:54.491Z,1011.81
2019-02-20T13:29:53.055Z,1011.74
2019-02-20T13:30:51.709Z,1011.75
2019-02-20T13:31:50.390Z,1011.8
2019-02-20T13:32:50.837Z,1011.78
2019-02-20T13:33:47.553Z,1011.73
2019-02-20T13:34:46.206Z,1011.82
2019-02-20T13:35:44.678Z,1011.76
2019-02-20T13:36:43.280Z,1011.78
2019-02-20T13:37:41.823Z,1011.78
2019-02-20T13:38:40.467Z,1011.77
2019-02-20T13:39:39.051Z,1011.79
2019-02-20T13:40:37.808Z,1011.81
2019-02-20T13:41:36.459Z,1011.77
2019-02-20T13:42:35.062Z,1011.81
2019-02-20T13:43:33.816Z,1011.77
2019-02-20T13:44:32.353Z,1011.78
2019-02-20T13:45:31.050Z,1011.71
2019-02-20T13:46:29.911Z,1011.76
2019-02-20T13:47:28.942Z,1011.75
2019-02-20T13:48:27.507Z,1011.71
2019-02-20T13:49:26.137Z,1011.7
2019-02-20T13:50:24.727Z,1011.75
2019-02-20T13:51:23.341Z,1011.74
2019-02-20T13:52:22.017Z,1011.77
2019-02-20T13:53:20.591Z,1011.76
2019-02-20T13:54:19.139Z,1011.78
2019-02-20T13:55:17.664Z,1011.82
2019-02-20T13:56:16.360Z,1011.78
2019-02-20T13:57:14.894Z,1011.77